sensor_id;sensor_type;location;lat;lon;timestamp;P1;durP1;ratioP1;P2;durP2;ratioP2
63688;SDS011;54895;40.928;14.480;2024-01-25T04:55:31;22.50;;;11.18;;
63688;SDS011;54895;40.928;14.480;2024-01-25T04:57:57;19.55;;;9.52;;
63688;SDS011;54895;40.928;14.480;2024-01-25T05:00:23;19.23;;;9.85;;
63688;SDS011;54895;40.928;14.480;2024-01-25T05:02:50;18.60;;;9.93;;
63688;SDS011;54895;40.928;14.480;2024-01-25T05:05:16;19.08;;;10.43;;
63688;SDS011;54895;40.928;14.480;2024-01-25T05:07:42;23.40;;;11.38;;
63688;SDS011;54895;40.928;14.480;2024-01-25T05:10:08;27.92;;;12.50;;
63688;SDS011;54895;40.928;14.480;2024-01-25T05:12:35;28.58;;;11.50;;
63688;SDS011;54895;40.928;14.480;2024-01-25T05:15:01;22.65;;;11.02;;
63688;SDS011;54895;40.928;14.480;2024-01-25T05:17:28;15.63;;;9.18;;
63688;SDS011;54895;40.928;14.480;2024-01-25T05:19:54;17.98;;;8.23;;
63688;SDS011;54895;40.928;14.480;2024-01-25T05:22:20;13.32;;;7.85;;
63688;SDS011;54895;40.928;14.480;2024-01-25T05:24:47;16.92;;;8.52;;
63688;SDS011;54895;40.928;14.480;2024-01-25T05:27:13;14.20;;;7.78;;
63688;SDS011;54895;40.928;14.480;2024-01-25T05:29:40;22.25;;;8.65;;
63688;SDS011;54895;40.928;14.480;2024-01-25T05:32:06;14.38;;;8.05;;
63688;SDS011;54895;40.928;14.480;2024-01-25T05:34:33;14.85;;;7.28;;
63688;SDS011;54895;40.928;14.480;2024-01-25T05:36:59;16.45;;;7.55;;
63688;SDS011;54895;40.928;14.480;2024-01-25T05:39:25;18.73;;;7.75;;
63688;SDS011;54895;40.928;14.480;2024-01-25T05:41:52;15.02;;;7.38;;
63688;SDS011;54895;40.928;14.480;2024-01-25T05:44:18;18.50;;;8.35;;
63688;SDS011;54895;40.928;14.480;2024-01-25T05:46:44;21.27;;;8.70;;
63688;SDS011;54895;40.928;14.480;2024-01-25T05:49:10;17.27;;;9.05;;
63688;SDS011;54895;40.928;14.480;2024-01-25T05:51:37;17.45;;;8.65;;
63688;SDS011;54895;40.928;14.480;2024-01-25T05:55:26;18.98;;;8.82;;
63688;SDS011;54895;40.928;14.480;2024-01-25T05:57:52;19.17;;;10.98;;
63688;SDS011;54895;40.928;14.480;2024-01-25T06:00:18;24.42;;;11.48;;
63688;SDS011;54895;40.928;14.480;2024-01-25T06:02:45;23.77;;;10.63;;
63688;SDS011;54895;40.928;14.480;2024-01-25T06:05:11;17.58;;;9.40;;
63688;SDS011;54895;40.928;14.480;2024-01-25T06:07:37;22.45;;;11.13;;
63688;SDS011;54895;40.928;14.480;2024-01-25T06:10:04;20.02;;;10.77;;
63688;SDS011;54895;40.928;14.480;2024-01-25T06:12:30;25.75;;;10.60;;
63688;SDS011;54895;40.928;14.480;2024-01-25T06:14:56;17.77;;;8.88;;
63688;SDS011;54895;40.928;14.480;2024-01-25T06:17:23;14.90;;;8.30;;
63688;SDS011;54895;40.928;14.480;2024-01-25T06:19:50;16.27;;;8.70;;
63688;SDS011;54895;40.928;14.480;2024-01-25T06:22:16;20.27;;;10.20;;
63688;SDS011;54895;40.928;14.480;2024-01-25T06:28:55;24.05;;;9.88;;
63688;SDS011;54895;40.928;14.480;2024-01-25T06:31:21;19.50;;;8.55;;
63688;SDS011;54895;40.928;14.480;2024-01-25T06:33:47;16.77;;;8.63;;
63688;SDS011;54895;40.928;14.480;2024-01-25T06:36:16;17.33;;;9.05;;
63688;SDS011;54895;40.928;14.480;2024-01-25T06:38:42;24.58;;;11.18;;
63688;SDS011;54895;40.928;14.480;2024-01-25T06:41:09;27.13;;;11.07;;
63688;SDS011;54895;40.928;14.480;2024-01-25T06:43:35;24.85;;;12.27;;
63688;SDS011;54895;40.928;14.480;2024-01-25T06:46:02;26.35;;;12.35;;
63688;SDS011;54895;40.928;14.480;2024-01-25T06:48:28;20.63;;;10.80;;
63688;SDS011;54895;40.928;14.480;2024-01-25T06:58:20;28.15;;;13.15;;
63688;SDS011;54895;40.928;14.480;2024-01-25T07:00:46;26.23;;;12.13;;
63688;SDS011;54895;40.928;14.480;2024-01-25T07:03:13;27.33;;;12.80;;
63688;SDS011;54895;40.928;14.480;2024-01-25T07:05:40;22.65;;;12.68;;
63688;SDS011;54895;40.928;14.480;2024-01-25T07:08:07;21.30;;;12.20;;
63688;SDS011;54895;40.928;14.480;2024-01-25T07:10:41;24.05;;;12.40;;
63688;SDS011;54895;40.928;14.480;2024-01-25T07:13:08;25.10;;;11.93;;
63688;SDS011;54895;40.928;14.480;2024-01-25T07:15:35;27.83;;;12.65;;
63688;SDS011;54895;40.928;14.480;2024-01-25T07:18:01;28.23;;;13.80;;
63688;SDS011;54895;40.928;14.480;2024-01-25T07:20:27;24.08;;;13.90;;
63688;SDS011;54895;40.928;14.480;2024-01-25T07:22:54;27.67;;;13.30;;
63688;SDS011;54895;40.928;14.480;2024-01-25T07:25:20;27.85;;;12.98;;
63688;SDS011;54895;40.928;14.480;2024-01-25T07:27:46;21.70;;;10.55;;
63688;SDS011;54895;40.928;14.480;2024-01-25T07:30:13;22.30;;;10.73;;
63688;SDS011;54895;40.928;14.480;2024-01-25T07:32:39;25.10;;;11.95;;
63688;SDS011;54895;40.928;14.480;2024-01-25T07:35:08;20.50;;;10.45;;
63688;SDS011;54895;40.928;14.480;2024-01-25T07:37:39;22.92;;;10.70;;
63688;SDS011;54895;40.928;14.480;2024-01-25T07:40:07;31.83;;;12.10;;
63688;SDS011;54895;40.928;14.480;2024-01-25T07:42:34;26.90;;;12.05;;
63688;SDS011;54895;40.928;14.480;2024-01-25T07:45:01;20.20;;;11.02;;
63688;SDS011;54895;40.928;14.480;2024-01-25T07:47:28;25.83;;;11.15;;
63688;SDS011;54895;40.928;14.480;2024-01-25T07:49:54;25.88;;;12.00;;
63688;SDS011;54895;40.928;14.480;2024-01-25T07:56:12;25.85;;;12.25;;
63688;SDS011;54895;40.928;14.480;2024-01-25T07:58:40;24.08;;;11.75;;
63688;SDS011;54895;40.928;14.480;2024-01-25T08:01:07;21.50;;;11.15;;
63688;SDS011;54895;40.928;14.480;2024-01-25T08:03:34;23.50;;;13.43;;
63688;SDS011;54895;40.928;14.480;2024-01-25T08:06:01;26.40;;;12.38;;
63688;SDS011;54895;40.928;14.480;2024-01-25T08:08:28;24.88;;;11.80;;
63688;SDS011;54895;40.928;14.480;2024-01-25T08:10:55;24.65;;;12.38;;
63688;SDS011;54895;40.928;14.480;2024-01-25T08:13:22;30.35;;;12.85;;
63688;SDS011;54895;40.928;14.480;2024-01-25T08:15:50;27.05;;;13.38;;
63688;SDS011;54895;40.928;14.480;2024-01-25T08:18:18;31.67;;;13.15;;
63688;SDS011;54895;40.928;14.480;2024-01-25T08:20:49;24.48;;;12.52;;
63688;SDS011;54895;40.928;14.480;2024-01-25T08:23:19;23.05;;;12.43;;
63688;SDS011;54895;40.928;14.480;2024-01-25T08:25:46;25.17;;;13.02;;
63688;SDS011;54895;40.928;14.480;2024-01-25T08:28:13;27.13;;;12.50;;
63688;SDS011;54895;40.928;14.480;2024-01-25T08:30:40;25.23;;;12.68;;
63688;SDS011;54895;40.928;14.480;2024-01-25T08:33:07;33.30;;;12.80;;
63688;SDS011;54895;40.928;14.480;2024-01-25T08:35:34;23.55;;;12.80;;
63688;SDS011;54895;40.928;14.480;2024-01-25T08:38:01;25.77;;;13.50;;
63688;SDS011;54895;40.928;14.480;2024-01-25T08:40:29;25.60;;;12.57;;
63688;SDS011;54895;40.928;14.480;2024-01-25T08:42:56;25.63;;;13.98;;
63688;SDS011;54895;40.928;14.480;2024-01-25T08:45:23;26.48;;;12.70;;
63688;SDS011;54895;40.928;14.480;2024-01-25T08:47:49;37.72;;;14.52;;
63688;SDS011;54895;40.928;14.480;2024-01-25T08:50:17;32.58;;;16.17;;
63688;SDS011;54895;40.928;14.480;2024-01-25T08:56:25;34.58;;;16.17;;
63688;SDS011;54895;40.928;14.480;2024-01-25T08:58:51;30.63;;;16.58;;
63688;SDS011;54895;40.928;14.480;2024-01-25T09:01:18;29.77;;;16.08;;
63688;SDS011;54895;40.928;14.480;2024-01-25T09:03:44;29.20;;;15.20;;
63688;SDS011;54895;40.928;14.480;2024-01-25T09:06:10;37.75;;;16.30;;
63688;SDS011;54895;40.928;14.480;2024-01-25T09:08:37;29.48;;;15.77;;
63688;SDS011;54895;40.928;14.480;2024-01-25T09:11:03;27.90;;;13.32;;
63688;SDS011;54895;40.928;14.480;2024-01-25T09:13:30;34.17;;;15.40;;
63688;SDS011;54895;40.928;14.480;2024-01-25T09:15:56;28.38;;;15.13;;
63688;SDS011;54895;40.928;14.480;2024-01-25T09:18:22;29.83;;;14.55;;
63688;SDS011;54895;40.928;14.480;2024-01-25T09:20:48;24.88;;;11.93;;
63688;SDS011;54895;40.928;14.480;2024-01-25T09:23:15;24.77;;;12.00;;
63688;SDS011;54895;40.928;14.480;2024-01-25T09:25:43;27.98;;;11.88;;
63688;SDS011;54895;40.928;14.480;2024-01-25T09:28:10;27.00;;;11.73;;
63688;SDS011;54895;40.928;14.480;2024-01-25T09:30:40;23.40;;;11.32;;
63688;SDS011;54895;40.928;14.480;2024-01-25T09:33:07;28.88;;;11.85;;
63688;SDS011;54895;40.928;14.480;2024-01-25T09:35:33;29.55;;;12.43;;
63688;SDS011;54895;40.928;14.480;2024-01-25T09:38:00;28.33;;;13.07;;
63688;SDS011;54895;40.928;14.480;2024-01-25T09:40:26;26.00;;;11.75;;
63688;SDS011;54895;40.928;14.480;2024-01-25T09:42:53;24.65;;;11.10;;
63688;SDS011;54895;40.928;14.480;2024-01-25T09:45:20;25.73;;;10.85;;
63688;SDS011;54895;40.928;14.480;2024-01-25T09:47:46;23.20;;;9.40;;
63688;SDS011;54895;40.928;14.480;2024-01-25T09:50:13;18.17;;;8.55;;
63688;SDS011;54895;40.928;14.480;2024-01-25T09:56:27;22.05;;;8.73;;
63688;SDS011;54895;40.928;14.480;2024-01-25T09:58:58;25.08;;;10.75;;
63688;SDS011;54895;40.928;14.480;2024-01-25T10:01:26;23.02;;;8.75;;
63688;SDS011;54895;40.928;14.480;2024-01-25T10:03:53;21.38;;;9.55;;
63688;SDS011;54895;40.928;14.480;2024-01-25T10:06:23;24.23;;;10.32;;
63688;SDS011;54895;40.928;14.480;2024-01-25T10:08:50;28.40;;;11.68;;
63688;SDS011;54895;40.928;14.480;2024-01-25T10:11:18;28.52;;;10.25;;
63688;SDS011;54895;40.928;14.480;2024-01-25T10:13:46;33.25;;;10.43;;
63688;SDS011;54895;40.928;14.480;2024-01-25T10:16:14;25.25;;;10.32;;
63688;SDS011;54895;40.928;14.480;2024-01-25T10:18:45;29.88;;;11.73;;
63688;SDS011;54895;40.928;14.480;2024-01-25T10:21:16;24.02;;;11.63;;
63688;SDS011;54895;40.928;14.480;2024-01-25T10:23:43;34.92;;;11.38;;
63688;SDS011;54895;40.928;14.480;2024-01-25T10:26:15;31.15;;;12.45;;
63688;SDS011;54895;40.928;14.480;2024-01-25T10:28:42;31.38;;;11.38;;
63688;SDS011;54895;40.928;14.480;2024-01-25T10:31:16;30.83;;;12.27;;
63688;SDS011;54895;40.928;14.480;2024-01-25T10:33:43;29.13;;;12.18;;
63688;SDS011;54895;40.928;14.480;2024-01-25T10:36:11;32.25;;;12.07;;
63688;SDS011;54895;40.928;14.480;2024-01-25T10:38:38;35.78;;;12.75;;
63688;SDS011;54895;40.928;14.480;2024-01-25T10:41:07;32.38;;;13.63;;
63688;SDS011;54895;40.928;14.480;2024-01-25T10:43:34;33.75;;;15.60;;
63688;SDS011;54895;40.928;14.480;2024-01-25T10:46:00;26.60;;;14.10;;
63688;SDS011;54895;40.928;14.480;2024-01-25T10:48:27;25.42;;;12.50;;
63688;SDS011;54895;40.928;14.480;2024-01-25T10:50:58;29.15;;;11.65;;
63688;SDS011;54895;40.928;14.480;2024-01-25T10:56:42;23.02;;;10.10;;
63688;SDS011;54895;40.928;14.480;2024-01-25T10:59:12;28.45;;;11.13;;
63688;SDS011;54895;40.928;14.480;2024-01-25T11:01:45;28.88;;;11.93;;
63688;SDS011;54895;40.928;14.480;2024-01-25T11:04:12;31.92;;;11.30;;
63688;SDS011;54895;40.928;14.480;2024-01-25T11:06:42;25.63;;;9.60;;
63688;SDS011;54895;40.928;14.480;2024-01-25T11:09:18;28.83;;;10.70;;
63688;SDS011;54895;40.928;14.480;2024-01-25T11:11:47;25.90;;;10.70;;
63688;SDS011;54895;40.928;14.480;2024-01-25T11:14:15;24.17;;;9.93;;
63688;SDS011;54895;40.928;14.480;2024-01-25T11:16:43;30.67;;;10.10;;
63688;SDS011;54895;40.928;14.480;2024-01-25T11:19:20;23.08;;;8.50;;
63688;SDS011;54895;40.928;14.480;2024-01-25T11:21:48;24.63;;;9.52;;
63688;SDS011;54895;40.928;14.480;2024-01-25T11:24:20;23.42;;;8.20;;
63688;SDS011;54895;40.928;14.480;2024-01-25T11:26:53;25.67;;;9.05;;
63688;SDS011;54895;40.928;14.480;2024-01-25T11:29:20;23.27;;;8.18;;
63688;SDS011;54895;40.928;14.480;2024-01-25T11:31:53;23.90;;;8.00;;
63688;SDS011;54895;40.928;14.480;2024-01-25T11:34:19;24.25;;;7.65;;
63688;SDS011;54895;40.928;14.480;2024-01-25T11:36:46;21.65;;;7.47;;
63688;SDS011;54895;40.928;14.480;2024-01-25T11:39:13;26.73;;;8.15;;
63688;SDS011;54895;40.928;14.480;2024-01-25T11:41:41;18.45;;;5.82;;
63688;SDS011;54895;40.928;14.480;2024-01-25T11:44:09;22.35;;;6.20;;
63688;SDS011;54895;40.928;14.480;2024-01-25T11:46:36;14.05;;;5.35;;
63688;SDS011;54895;40.928;14.480;2024-01-25T11:49:02;17.50;;;5.40;;
63688;SDS011;54895;40.928;14.480;2024-01-25T11:51:29;13.27;;;5.20;;
63688;SDS011;54895;40.928;14.480;2024-01-25T11:53:55;15.38;;;4.53;;
63688;SDS011;54895;40.928;14.480;2024-01-25T11:56:29;13.07;;;4.55;;
63688;SDS011;54895;40.928;14.480;2024-01-25T11:58:59;14.93;;;4.10;;
63688;SDS011;54895;40.928;14.480;2024-01-25T12:01:25;15.93;;;4.65;;
63688;SDS011;54895;40.928;14.480;2024-01-25T12:03:53;17.88;;;4.32;;
63688;SDS011;54895;40.928;14.480;2024-01-25T12:06:19;16.35;;;4.82;;
63688;SDS011;54895;40.928;14.480;2024-01-25T12:08:46;19.38;;;4.97;;
63688;SDS011;54895;40.928;14.480;2024-01-25T12:11:14;12.88;;;4.10;;
63688;SDS011;54895;40.928;14.480;2024-01-25T12:13:41;16.77;;;4.60;;
63688;SDS011;54895;40.928;14.480;2024-01-25T12:16:08;12.13;;;4.18;;
63688;SDS011;54895;40.928;14.480;2024-01-25T12:18:36;10.98;;;3.40;;
63688;SDS011;54895;40.928;14.480;2024-01-25T12:21:03;16.15;;;4.82;;
63688;SDS011;54895;40.928;14.480;2024-01-25T12:23:35;15.02;;;4.47;;
63688;SDS011;54895;40.928;14.480;2024-01-25T12:26:06;17.33;;;4.57;;
63688;SDS011;54895;40.928;14.480;2024-01-25T12:28:33;17.42;;;4.60;;
63688;SDS011;54895;40.928;14.480;2024-01-25T12:31:04;16.52;;;4.38;;
63688;SDS011;54895;40.928;14.480;2024-01-25T12:33:32;12.43;;;4.93;;
63688;SDS011;54895;40.928;14.480;2024-01-25T12:35:59;16.42;;;5.10;;
63688;SDS011;54895;40.928;14.480;2024-01-25T12:38:26;19.40;;;5.90;;
63688;SDS011;54895;40.928;14.480;2024-01-25T12:40:53;17.70;;;5.90;;
63688;SDS011;54895;40.928;14.480;2024-01-25T12:43:20;18.35;;;5.35;;
63688;SDS011;54895;40.928;14.480;2024-01-25T12:45:49;14.73;;;5.13;;
63688;SDS011;54895;40.928;14.480;2024-01-25T12:48:15;11.60;;;4.85;;
63688;SDS011;54895;40.928;14.480;2024-01-25T12:50:41;16.35;;;5.32;;
63688;SDS011;54895;40.928;14.480;2024-01-25T12:56:30;19.35;;;5.75;;
63688;SDS011;54895;40.928;14.480;2024-01-25T12:58:56;15.88;;;6.18;;
63688;SDS011;54895;40.928;14.480;2024-01-25T13:01:22;18.75;;;6.72;;
63688;SDS011;54895;40.928;14.480;2024-01-25T13:03:49;17.05;;;6.30;;
63688;SDS011;54895;40.928;14.480;2024-01-25T13:06:15;17.50;;;5.28;;
63688;SDS011;54895;40.928;14.480;2024-01-25T13:08:42;16.92;;;5.03;;
63688;SDS011;54895;40.928;14.480;2024-01-25T13:11:08;18.63;;;7.15;;
63688;SDS011;54895;40.928;14.480;2024-01-25T13:13:35;20.20;;;7.75;;
63688;SDS011;54895;40.928;14.480;2024-01-25T13:16:01;19.58;;;6.40;;
63688;SDS011;54895;40.928;14.480;2024-01-25T13:18:27;24.20;;;6.63;;
63688;SDS011;54895;40.928;14.480;2024-01-25T13:20:54;16.38;;;6.55;;
63688;SDS011;54895;40.928;14.480;2024-01-25T13:23:21;21.25;;;7.40;;
63688;SDS011;54895;40.928;14.480;2024-01-25T13:25:48;17.90;;;5.55;;
63688;SDS011;54895;40.928;14.480;2024-01-25T13:28:15;20.90;;;6.28;;
63688;SDS011;54895;40.928;14.480;2024-01-25T13:30:41;15.45;;;6.45;;
63688;SDS011;54895;40.928;14.480;2024-01-25T13:33:07;19.20;;;6.43;;
63688;SDS011;54895;40.928;14.480;2024-01-25T13:35:34;19.77;;;6.90;;
63688;SDS011;54895;40.928;14.480;2024-01-25T13:38:03;20.48;;;7.10;;
63688;SDS011;54895;40.928;14.480;2024-01-25T13:40:29;20.95;;;6.55;;
63688;SDS011;54895;40.928;14.480;2024-01-25T13:42:55;16.65;;;6.28;;
63688;SDS011;54895;40.928;14.480;2024-01-25T13:45:22;21.92;;;7.97;;
63688;SDS011;54895;40.928;14.480;2024-01-25T13:47:49;21.58;;;7.57;;
63688;SDS011;54895;40.928;14.480;2024-01-25T13:50:15;24.70;;;7.70;;
63688;SDS011;54895;40.928;14.480;2024-01-25T13:56:48;22.08;;;7.93;;
63688;SDS011;54895;40.928;14.480;2024-01-25T13:59:14;21.40;;;7.07;;
63688;SDS011;54895;40.928;14.480;2024-01-25T14:01:41;18.98;;;7.45;;
63688;SDS011;54895;40.928;14.480;2024-01-25T14:04:07;17.67;;;7.20;;
63688;SDS011;54895;40.928;14.480;2024-01-25T14:06:33;22.15;;;7.82;;
63688;SDS011;54895;40.928;14.480;2024-01-25T14:09:00;25.00;;;8.32;;
63688;SDS011;54895;40.928;14.480;2024-01-25T14:11:26;18.50;;;7.30;;
63688;SDS011;54895;40.928;14.480;2024-01-25T14:13:52;19.70;;;6.78;;
63688;SDS011;54895;40.928;14.480;2024-01-25T14:16:18;23.92;;;8.02;;
63688;SDS011;54895;40.928;14.480;2024-01-25T14:18:45;23.83;;;8.52;;
63688;SDS011;54895;40.928;14.480;2024-01-25T14:21:11;23.15;;;8.45;;
63688;SDS011;54895;40.928;14.480;2024-01-25T14:23:38;26.05;;;9.98;;
63688;SDS011;54895;40.928;14.480;2024-01-25T14:26:04;20.88;;;8.93;;
63688;SDS011;54895;40.928;14.480;2024-01-25T14:28:31;23.52;;;9.40;;
63688;SDS011;54895;40.928;14.480;2024-01-25T14:30:57;31.05;;;13.50;;
63688;SDS011;54895;40.928;14.480;2024-01-25T14:33:23;32.65;;;13.07;;
63688;SDS011;54895;40.928;14.480;2024-01-25T14:35:49;28.50;;;13.27;;
63688;SDS011;54895;40.928;14.480;2024-01-25T14:38:16;28.13;;;12.77;;
63688;SDS011;54895;40.928;14.480;2024-01-25T14:40:42;22.40;;;9.55;;
63688;SDS011;54895;40.928;14.480;2024-01-25T14:43:08;28.80;;;10.10;;
63688;SDS011;54895;40.928;14.480;2024-01-25T14:45:34;21.98;;;9.07;;
63688;SDS011;54895;40.928;14.480;2024-01-25T14:48:02;22.20;;;9.30;;
63688;SDS011;54895;40.928;14.480;2024-01-25T14:50:29;30.20;;;10.52;;
63688;SDS011;54895;40.928;14.480;2024-01-25T14:56:44;21.15;;;8.00;;
63688;SDS011;54895;40.928;14.480;2024-01-25T14:59:10;25.80;;;9.43;;
63688;SDS011;54895;40.928;14.480;2024-01-25T15:01:37;25.38;;;10.40;;
63688;SDS011;54895;40.928;14.480;2024-01-25T15:04:03;25.00;;;10.90;;
63688;SDS011;54895;40.928;14.480;2024-01-25T15:06:30;25.00;;;9.73;;
63688;SDS011;54895;40.928;14.480;2024-01-25T15:08:56;36.22;;;10.68;;
63688;SDS011;54895;40.928;14.480;2024-01-25T15:11:23;36.65;;;10.73;;
63688;SDS011;54895;40.928;14.480;2024-01-25T15:13:49;33.35;;;10.50;;
63688;SDS011;54895;40.928;14.480;2024-01-25T15:16:16;22.20;;;9.93;;
63688;SDS011;54895;40.928;14.480;2024-01-25T15:18:43;26.45;;;9.93;;
63688;SDS011;54895;40.928;14.480;2024-01-25T15:21:09;26.42;;;9.45;;
63688;SDS011;54895;40.928;14.480;2024-01-25T15:23:36;29.67;;;10.80;;
63688;SDS011;54895;40.928;14.480;2024-01-25T15:26:03;26.30;;;11.57;;
63688;SDS011;54895;40.928;14.480;2024-01-25T15:28:30;25.42;;;10.02;;
63688;SDS011;54895;40.928;14.480;2024-01-25T15:30:57;22.23;;;9.95;;
63688;SDS011;54895;40.928;14.480;2024-01-25T15:33:23;26.58;;;9.88;;
63688;SDS011;54895;40.928;14.480;2024-01-25T15:35:50;26.73;;;9.80;;
63688;SDS011;54895;40.928;14.480;2024-01-25T15:38:16;29.00;;;10.45;;
63688;SDS011;54895;40.928;14.480;2024-01-25T15:40:44;27.98;;;9.50;;
63688;SDS011;54895;40.928;14.480;2024-01-25T15:43:11;27.05;;;9.90;;
63688;SDS011;54895;40.928;14.480;2024-01-25T15:45:38;28.15;;;10.43;;
63688;SDS011;54895;40.928;14.480;2024-01-25T15:48:04;28.83;;;10.52;;
63688;SDS011;54895;40.928;14.480;2024-01-25T15:50:31;30.58;;;9.98;;
63688;SDS011;54895;40.928;14.480;2024-01-25T15:57:01;21.40;;;8.77;;
63688;SDS011;54895;40.928;14.480;2024-01-25T15:59:27;20.58;;;8.27;;
63688;SDS011;54895;40.928;14.480;2024-01-25T16:01:54;22.42;;;9.57;;
63688;SDS011;54895;40.928;14.480;2024-01-25T16:04:20;23.90;;;10.25;;
63688;SDS011;54895;40.928;14.480;2024-01-25T16:06:46;25.42;;;8.98;;
63688;SDS011;54895;40.928;14.480;2024-01-25T16:09:12;26.60;;;9.30;;
63688;SDS011;54895;40.928;14.480;2024-01-25T16:11:39;27.52;;;10.45;;
63688;SDS011;54895;40.928;14.480;2024-01-25T16:14:05;27.48;;;10.45;;
63688;SDS011;54895;40.928;14.480;2024-01-25T16:16:31;29.10;;;10.77;;
63688;SDS011;54895;40.928;14.480;2024-01-25T16:18:57;31.55;;;12.88;;
63688;SDS011;54895;40.928;14.480;2024-01-25T16:21:24;35.13;;;13.90;;
63688;SDS011;54895;40.928;14.480;2024-01-25T16:23:50;41.47;;;14.80;;
63688;SDS011;54895;40.928;14.480;2024-01-25T16:26:16;36.38;;;15.70;;
63688;SDS011;54895;40.928;14.480;2024-01-25T16:28:42;46.95;;;21.55;;
63688;SDS011;54895;40.928;14.480;2024-01-25T16:31:09;30.77;;;15.40;;
63688;SDS011;54895;40.928;14.480;2024-01-25T16:33:35;34.78;;;17.25;;
63688;SDS011;54895;40.928;14.480;2024-01-25T16:36:01;30.25;;;15.63;;
63688;SDS011;54895;40.928;14.480;2024-01-25T16:38:27;40.42;;;18.63;;
63688;SDS011;54895;40.928;14.480;2024-01-25T16:40:54;35.90;;;18.35;;
63688;SDS011;54895;40.928;14.480;2024-01-25T16:43:23;35.85;;;16.77;;
63688;SDS011;54895;40.928;14.480;2024-01-25T16:45:49;31.20;;;15.98;;
63688;SDS011;54895;40.928;14.480;2024-01-25T16:48:16;32.10;;;15.23;;
63688;SDS011;54895;40.928;14.480;2024-01-25T16:50:42;37.97;;;17.02;;
63688;SDS011;54895;40.928;14.480;2024-01-25T16:56:58;65.00;;;30.25;;
63688;SDS011;54895;40.928;14.480;2024-01-25T16:59:25;46.13;;;21.30;;
63688;SDS011;54895;40.928;14.480;2024-01-25T17:01:51;50.13;;;24.75;;
63688;SDS011;54895;40.928;14.480;2024-01-25T17:04:18;38.45;;;18.60;;
63688;SDS011;54895;40.928;14.480;2024-01-25T17:06:44;46.40;;;21.20;;
63688;SDS011;54895;40.928;14.480;2024-01-25T17:09:11;39.75;;;18.20;;
63688;SDS011;54895;40.928;14.480;2024-01-25T17:11:42;44.60;;;16.92;;
63688;SDS011;54895;40.928;14.480;2024-01-25T17:14:11;41.10;;;15.55;;
63688;SDS011;54895;40.928;14.480;2024-01-25T17:16:37;39.00;;;17.80;;
63688;SDS011;54895;40.928;14.480;2024-01-25T17:19:04;38.45;;;17.98;;
63688;SDS011;54895;40.928;14.480;2024-01-25T17:21:30;34.85;;;15.77;;
63688;SDS011;54895;40.928;14.480;2024-01-25T17:23:57;33.95;;;13.05;;
63688;SDS011;54895;40.928;14.480;2024-01-25T17:26:24;42.60;;;20.88;;
63688;SDS011;54895;40.928;14.480;2024-01-25T17:28:51;52.67;;;21.65;;
63688;SDS011;54895;40.928;14.480;2024-01-25T17:31:17;83.28;;;42.95;;
63688;SDS011;54895;40.928;14.480;2024-01-25T17:33:45;76.25;;;40.85;;
63688;SDS011;54895;40.928;14.480;2024-01-25T17:36:12;56.45;;;27.35;;
63688;SDS011;54895;40.928;14.480;2024-01-25T17:38:39;51.67;;;22.98;;
63688;SDS011;54895;40.928;14.480;2024-01-25T17:41:09;56.58;;;26.08;;
63688;SDS011;54895;40.928;14.480;2024-01-25T17:43:35;48.05;;;21.02;;
63688;SDS011;54895;40.928;14.480;2024-01-25T17:46:02;40.80;;;18.48;;
63688;SDS011;54895;40.928;14.480;2024-01-25T17:48:29;35.50;;;17.67;;
63688;SDS011;54895;40.928;14.480;2024-01-25T17:50:55;41.88;;;20.25;;
63688;SDS011;54895;40.928;14.480;2024-01-25T17:57:10;53.67;;;27.20;;
63688;SDS011;54895;40.928;14.480;2024-01-25T17:59:36;69.63;;;33.90;;
63688;SDS011;54895;40.928;14.480;2024-01-25T18:02:03;67.20;;;36.63;;
63688;SDS011;54895;40.928;14.480;2024-01-25T18:04:32;103.05;;;54.00;;
63688;SDS011;54895;40.928;14.480;2024-01-25T18:07:00;96.93;;;57.17;;
63688;SDS011;54895;40.928;14.480;2024-01-25T18:09:26;102.50;;;58.63;;
63688;SDS011;54895;40.928;14.480;2024-01-25T18:11:53;99.07;;;58.28;;
63688;SDS011;54895;40.928;14.480;2024-01-25T18:14:19;103.45;;;59.53;;
63688;SDS011;54895;40.928;14.480;2024-01-25T18:16:45;100.50;;;52.35;;
63688;SDS011;54895;40.928;14.480;2024-01-25T18:19:12;72.88;;;36.58;;
63688;SDS011;54895;40.928;14.480;2024-01-25T18:21:43;73.90;;;38.75;;
63688;SDS011;54895;40.928;14.480;2024-01-25T18:24:12;89.18;;;48.22;;
63688;SDS011;54895;40.928;14.480;2024-01-25T18:26:39;82.07;;;49.03;;
63688;SDS011;54895;40.928;14.480;2024-01-25T18:29:06;90.93;;;51.40;;
63688;SDS011;54895;40.928;14.480;2024-01-25T18:31:32;85.18;;;49.00;;
63688;SDS011;54895;40.928;14.480;2024-01-25T18:33:58;81.53;;;48.67;;
63688;SDS011;54895;40.928;14.480;2024-01-25T18:36:25;85.13;;;51.08;;
63688;SDS011;54895;40.928;14.480;2024-01-25T18:38:51;80.85;;;46.97;;
63688;SDS011;54895;40.928;14.480;2024-01-25T18:41:17;94.80;;;53.85;;
63688;SDS011;54895;40.928;14.480;2024-01-25T18:43:44;114.20;;;68.35;;
63688;SDS011;54895;40.928;14.480;2024-01-25T18:46:10;103.32;;;62.50;;
63688;SDS011;54895;40.928;14.480;2024-01-25T18:48:37;94.72;;;56.30;;
63688;SDS011;54895;40.928;14.480;2024-01-25T18:51:04;99.75;;;58.50;;
63688;SDS011;54895;40.928;14.480;2024-01-25T18:57:25;101.22;;;57.83;;
63688;SDS011;54895;40.928;14.480;2024-01-25T18:59:52;97.20;;;60.00;;
63688;SDS011;54895;40.928;14.480;2024-01-25T19:02:19;109.35;;;63.97;;
63688;SDS011;54895;40.928;14.480;2024-01-25T19:04:46;83.18;;;50.78;;
63688;SDS011;54895;40.928;14.480;2024-01-25T19:07:15;101.03;;;58.65;;
63688;SDS011;54895;40.928;14.480;2024-01-25T19:09:42;115.40;;;68.25;;
63688;SDS011;54895;40.928;14.480;2024-01-25T19:12:10;117.90;;;69.50;;
63688;SDS011;54895;40.928;14.480;2024-01-25T19:14:37;103.50;;;63.78;;
63688;SDS011;54895;40.928;14.480;2024-01-25T19:17:04;96.65;;;57.05;;
63688;SDS011;54895;40.928;14.480;2024-01-25T19:19:30;96.22;;;58.00;;
63688;SDS011;54895;40.928;14.480;2024-01-25T19:21:57;95.40;;;60.60;;
63688;SDS011;54895;40.928;14.480;2024-01-25T19:24:25;92.40;;;57.45;;
63688;SDS011;54895;40.928;14.480;2024-01-25T19:26:52;109.65;;;64.85;;
63688;SDS011;54895;40.928;14.480;2024-01-25T19:29:18;102.72;;;59.55;;
63688;SDS011;54895;40.928;14.480;2024-01-25T19:31:46;93.50;;;58.45;;
63688;SDS011;54895;40.928;14.480;2024-01-25T19:34:13;110.43;;;64.30;;
63688;SDS011;54895;40.928;14.480;2024-01-25T19:36:39;104.25;;;66.22;;
63688;SDS011;54895;40.928;14.480;2024-01-25T19:39:06;117.15;;;66.78;;
63688;SDS011;54895;40.928;14.480;2024-01-25T19:41:33;105.85;;;66.47;;
63688;SDS011;54895;40.928;14.480;2024-01-25T19:44:00;103.68;;;64.57;;
63688;SDS011;54895;40.928;14.480;2024-01-25T19:46:26;108.22;;;65.68;;
63688;SDS011;54895;40.928;14.480;2024-01-25T19:48:53;106.15;;;66.85;;
63688;SDS011;54895;40.928;14.480;2024-01-25T19:51:20;115.88;;;69.88;;
63688;SDS011;54895;40.928;14.480;2024-01-25T19:57:31;113.03;;;69.18;;
63688;SDS011;54895;40.928;14.480;2024-01-25T19:59:57;108.93;;;68.38;;
63688;SDS011;54895;40.928;14.480;2024-01-25T20:02:24;129.73;;;74.25;;
63688;SDS011;54895;40.928;14.480;2024-01-25T20:04:51;129.13;;;78.63;;